Time;durP1;ratioP1;P1;durP2;ratioP2;P2;SDS_P1;SDS_P2;PMS_P1;PMS_P2;Temp;Humidity;BMP_temperature;BMP_pressure;BME280_temperature;BME280_humidity;BME280_pressure;Samples;Min_cycle;Max_cycle;Signal;HPM_P1;HPM_P2
2023/08/19 00:01:31;;;;;;;8.57;3.03;;;;;22.70;94241.00;;;;7395569;19;20154;-75
2023/08/19 00:04:05;;;;;;;10.43;3.30;;;;;22.60;94230.00;;;;7399718;19;20192;-76
2023/08/19 00:06:49;;;;;;;4.22;2.95;;;;;22.60;94231.00;;;;7397204;19;20159;-74
2023/08/19 00:09:23;;;;;;;7.32;3.00;;;;;22.70;94227.00;;;;7400708;19;20149;-75
2023/08/19 00:11:57;;;;;;;7.65;2.90;;;;;22.90;94225.00;;;;7398478;19;20142;-75
2023/08/19 00:14:31;;;;;;;6.18;3.00;;;;;22.80;94224.00;;;;7399220;19;20147;-76
2023/08/19 00:17:06;;;;;;;9.20;2.80;;;;;22.80;94224.00;;;;7397385;19;20153;-76
2023/08/19 00:19:34;;;;;;;5.78;2.95;;;;;22.90;94223.00;;;;7397768;19;20143;-77
2023/08/19 00:22:08;;;;;;;3.95;2.65;;;;;22.90;94211.00;;;;7401013;19;20136;-78
2023/08/19 00:24:43;;;;;;;12.13;3.20;;;;;22.90;94220.00;;;;7398124;19;20144;-78
2023/08/19 00:27:17;;;;;;;5.85;2.80;;;;;22.90;94219.00;;;;7398254;19;20920;-77
2023/08/19 00:29:51;;;;;;;7.18;2.85;;;;;22.80;94228.00;;;;7398839;19;20121;-78
2023/08/19 00:32:19;;;;;;;6.20;2.95;;;;;22.80;94218.00;;;;7396941;19;20474;-76
2023/08/19 00:34:53;;;;;;;10.25;3.10;;;;;22.70;94221.00;;;;7396391;19;20148;-76
2023/08/19 00:37:21;;;;;;;8.10;2.90;;;;;22.60;94219.00;;;;7389946;19;20220;-77
2023/08/19 00:39:56;;;;;;;6.00;2.58;;;;;22.70;94224.00;;;;7397901;19;20616;-77
2023/08/19 00:42:24;;;;;;;5.95;3.05;;;;;22.70;94222.00;;;;7398372;19;20161;-78
2023/08/19 00:44:58;;;;;;;10.68;3.35;;;;;22.70;94227.00;;;;7398806;19;20165;-75
2023/08/19 00:47:26;;;;;;;8.88;3.22;;;;;22.80;94227.00;;;;7396872;19;20200;-79
2023/08/19 00:50:06;;;;;;;7.90;3.25;;;;;22.80;94221.00;;;;7398444;19;20150;-78
2023/08/19 00:52:41;;;;;;;9.25;3.25;;;;;22.80;94225.00;;;;7397441;19;20224;-78
2023/08/19 00:55:23;;;;;;;7.88;2.90;;;;;22.80;94219.00;;;;7396330;19;20477;-76
2023/08/19 00:57:52;;;;;;;5.78;3.05;;;;;22.80;94229.00;;;;7395841;19;20534;-78
2023/08/19 01:00:28;;;;;;;5.82;3.25;;;;;22.80;94217.00;;;;7397118;19;20519;-76
2023/08/19 01:03:10;;;;;;;7.63;2.88;;;;;22.90;94218.00;;;;7392781;19;20196;-75
2023/08/19 01:06:06;;;;;;;7.10;4.15;;;;;22.80;94222.00;;;;7394355;19;20143;-75
2023/08/19 01:08:54;;;;;;;10.13;3.53;;;;;22.80;94218.00;;;;7395232;19;20149;-75
2023/08/19 01:11:57;;;;;;;5.38;2.95;;;;;22.70;94217.00;;;;7394385;19;20517;-75
2023/08/19 01:14:54;;;;;;;6.78;3.03;;;;;22.70;94217.00;;;;7394719;19;20149;-75
2023/08/19 01:17:28;;;;;;;3.70;2.58;;;;;22.60;94215.00;;;;7394900;19;20137;-75
2023/08/19 01:20:04;;;;;;;5.25;3.55;;;;;22.60;94209.00;;;;7397489;19;20177;-75
2023/08/19 01:23:02;;;;;;;4.22;2.80;;;;;22.50;94214.00;;;;7396608;19;20157;-75
2023/08/19 01:25:37;;;;;;;5.82;2.80;;;;;22.30;94214.00;;;;7394153;19;20207;-75
2023/08/19 01:28:11;;;;;;;5.38;3.05;;;;;22.20;94208.00;;;;7395556;19;20161;-74
2023/08/19 01:30:39;;;;;;;10.57;3.42;;;;;22.20;94208.00;;;;7393596;19;20583;-75
2023/08/19 01:33:15;;;;;;;5.63;3.25;;;;;22.20;94203.00;;;;7394901;19;20127;-75
2023/08/19 01:36:25;;;;;;;4.70;3.45;;;;;22.10;94203.00;;;;7395864;19;20149;-75
2023/08/19 01:39:06;;;;;;;4.82;2.75;;;;;22.00;94202.00;;;;7393283;19;20137;-75
2023/08/19 01:41:34;;;;;;;7.15;3.13;;;;;21.70;94209.00;;;;7395779;19;20598;-76
2023/08/19 01:44:09;;;;;;;5.28;2.90;;;;;21.80;94211.00;;;;7396536;19;20660;-75
2023/08/19 01:46:43;;;;;;;6.40;3.20;;;;;21.70;94204.00;;;;7396244;19;20132;-75
2023/08/19 01:49:17;;;;;;;5.35;2.97;;;;;21.70;94211.00;;;;7395818;19;20121;-75
2023/08/19 01:51:54;;;;;;;8.68;3.17;;;;;21.60;94208.00;;;;7395838;19;20256;-74
2023/08/19 01:54:29;;;;;;;4.30;2.58;;;;;21.70;94211.00;;;;7396386;19;20216;-75
2023/08/19 01:56:56;;;;;;;8.57;3.15;;;;;21.70;94206.00;;;;7394727;19;20172;-76
2023/08/19 01:59:31;;;;;;;5.90;2.80;;;;;21.70;94206.00;;;;7396300;19;20139;-75
2023/08/19 02:02:05;;;;;;;5.82;3.25;;;;;21.60;94212.00;;;;7391127;19;20136;-75
2023/08/19 02:04:46;;;;;;;4.90;3.25;;;;;21.50;94212.00;;;;7392717;19;20191;-74
2023/08/19 02:07:20;;;;;;;10.27;3.28;;;;;21.50;94214.00;;;;7394841;19;20160;-75
2023/08/19 02:09:56;;;;;;;7.45;3.25;;;;;21.40;94204.00;;;;7394017;19;20144;-75
2023/08/19 02:12:31;;;;;;;7.22;2.75;;;;;21.50;94203.00;;;;7395174;19;20156;-76
2023/08/19 02:15:06;;;;;;;9.30;3.50;;;;;21.60;94202.00;;;;7396795;19;20147;-76
2023/08/19 02:17:41;;;;;;;7.03;3.42;;;;;21.80;94197.00;;;;7393969;19;20248;-76
2023/08/19 02:20:15;;;;;;;9.30;2.85;;;;;21.90;94202.00;;;;7394672;19;20564;-76
2023/08/19 02:22:49;;;;;;;4.65;2.55;;;;;22.10;94197.00;;;;7394764;19;20212;-76
2023/08/19 02:25:17;;;;;;;7.20;3.00;;;;;22.10;94195.00;;;;7393848;19;20653;-76
2023/08/19 02:27:51;;;;;;;7.45;2.92;;;;;22.20;94196.00;;;;7393732;19;20157;-76
2023/08/19 02:30:19;;;;;;;7.57;3.13;;;;;22.20;94193.00;;;;7394103;19;20133;-76
2023/08/19 02:32:53;;;;;;;6.82;2.83;;;;;22.30;94201.00;;;;7388771;19;20140;-76
2023/08/19 02:35:21;;;;;;;6.45;2.50;;;;;22.30;94199.00;;;;7393391;19;20476;-76
2023/08/19 02:37:55;;;;;;;9.10;2.90;;;;;22.30;94201.00;;;;7393817;19;20129;-76
2023/08/19 02:40:33;;;;;;;7.72;2.85;;;;;22.20;94201.00;;;;7393263;19;20144;-76
2023/08/19 02:43:06;;;;;;;6.05;2.95;;;;;22.10;94206.00;;;;7402516;19;20607;-76
2023/08/19 02:45:44;;;;;;;8.48;2.92;;;;;22.00;94211.00;;;;7402047;19;20141;-76
2023/08/19 02:48:11;;;;;;;7.07;2.80;;;;;21.80;94210.00;;;;7400037;19;20536;-76
2023/08/19 02:50:45;;;;;;;8.93;3.20;;;;;21.60;94210.00;;;;7401022;19;20124;-76
2023/08/19 02:53:19;;;;;;;7.45;2.97;;;;;21.40;94213.00;;;;7402795;19;20121;-77
2023/08/19 02:55:54;;;;;;;6.30;2.78;;;;;21.20;94209.00;;;;7399777;19;20133;-76
2023/08/19 02:58:22;;;;;;;7.53;3.03;;;;;21.10;94212.00;;;;7399583;19;20173;-76
2023/08/19 03:00:56;;;;;;;11.80;3.25;;;;;21.20;94215.00;;;;7400904;19;20133;-76
2023/08/19 03:03:37;;;;;;;8.95;3.03;;;;;21.20;94210.00;;;;7396604;19;20175;-76
2023/08/19 03:06:18;;;;;;;6.05;3.25;;;;;20.90;94212.00;;;;7399872;19;20619;-76
2023/08/19 03:08:45;;;;;;;6.70;3.13;;;;;20.90;94219.00;;;;7400698;19;20208;-76
2023/08/19 03:11:19;;;;;;;11.52;3.03;;;;;20.90;94217.00;;;;7401714;19;20212;-76
2023/08/19 03:13:47;;;;;;;9.35;3.10;;;;;21.00;94209.00;;;;7399040;19;20159;-76
2023/08/19 03:16:21;;;;;;;6.35;2.55;;;;;21.10;94210.00;;;;7399657;19;20147;-76
2023/08/19 03:18:49;;;;;;;14.18;3.33;;;;;21.00;94210.00;;;;7397309;19;20475;-76
2023/08/19 03:21:23;;;;;;;8.57;2.90;;;;;20.80;94214.00;;;;7398655;19;20169;-76
2023/08/19 03:23:51;;;;;;;7.63;2.67;;;;;20.60;94219.00;;;;7399709;19;20137;-76
2023/08/19 03:26:25;;;;;;;9.15;3.40;;;;;20.70;94213.00;;;;7401433;19;20141;-76
2023/08/19 03:28:59;;;;;;;8.15;2.92;;;;;20.70;94215.00;;;;7398643;19;20140;-76
2023/08/19 03:31:27;;;;;;;6.10;2.83;;;;;20.90;94209.00;;;;7401758;19;20534;-72
2023/08/19 03:34:02;;;;;;;9.02;3.20;;;;;20.90;94208.00;;;;7398258;19;20170;-72
2023/08/19 03:36:29;;;;;;;9.18;3.47;;;;;21.00;94209.00;;;;7399375;19;20159;-73
2023/08/19 03:39:03;;;;;;;7.60;3.40;;;;;21.20;94204.00;;;;7399379;19;20159;-73
2023/08/19 03:41:31;;;;;;;9.32;2.90;;;;;21.50;94207.00;;;;7397730;19;20141;-73
2023/08/19 03:44:06;;;;;;;6.28;3.00;;;;;21.60;94204.00;;;;7398102;19;20166;-73
2023/08/19 03:46:41;;;;;;;8.55;3.53;;;;;21.50;94212.00;;;;7400821;19;20136;-72
2023/08/19 03:49:15;;;;;;;11.07;3.03;;;;;21.60;94203.00;;;;7399554;19;20248;-73
2023/08/19 03:51:43;;;;;;;14.23;3.40;;;;;21.60;94195.00;;;;7398336;19;20137;-74
2023/08/19 03:54:17;;;;;;;10.00;2.90;;;;;21.60;94203.00;;;;7397814;19;20200;-73
2023/08/19 03:56:45;;;;;;;8.55;2.75;;;;;21.70;94198.00;;;;7397755;19;20155;-73
2023/08/19 03:59:19;;;;;;;5.57;2.72;;;;;21.90;94198.00;;;;7396243;19;20121;-73
2023/08/19 04:01:47;;;;;;;7.65;2.72;;;;;21.80;94204.00;;;;7398821;19;20148;-73
2023/08/19 04:04:28;;;;;;;10.00;2.95;;;;;22.00;94212.00;;;;7395035;19;20179;-72
2023/08/19 04:06:55;;;;;;;9.75;2.80;;;;;22.10;94209.00;;;;7397598;19;20628;-73
2023/08/19 04:09:29;;;;;;;7.32;3.20;;;;;22.20;94200.00;;;;7399568;19;20128;-72
2023/08/19 04:12:04;;;;;;;4.93;2.75;;;;;22.30;94207.00;;;;7398404;19;20502;-74
2023/08/19 04:14:39;;;;;;;6.25;2.80;;;;;22.30;94196.00;;;;7398173;19;20467;-75
2023/08/19 04:17:07;;;;;;;9.55;3.58;;;;;22.00;94202.00;;;;7395336;19;20151;-73
2023/08/19 04:19:42;;;;;;;6.97;3.10;;;;;21.90;94200.00;;;;7393966;19;20140;-73
2023/08/19 04:22:16;;;;;;;4.75;3.03;;;;;21.90;94201.00;;;;7399700;19;20139;-73
2023/08/19 04:24:52;;;;;;;9.95;3.50;;;;;21.90;94204.00;;;;7397209;19;20152;-74
2023/08/19 04:27:21;;;;;;;6.93;3.10;;;;;21.80;94201.00;;;;7396333;19;20624;-73
2023/08/19 04:29:50;;;;;;;5.75;3.20;;;;;21.80;94203.00;;;;7397646;19;20136;-72
2023/08/19 04:32:24;;;;;;;6.25;3.03;;;;;21.80;94200.00;;;;7395949;19;20140;-72
2023/08/19 04:34:59;;;;;;;8.60;2.95;;;;;21.80;94204.00;;;;7396102;19;20136;-75
2023/08/19 04:37:33;;;;;;;8.98;2.97;;;;;21.70;94207.00;;;;7397776;19;20148;-72
2023/08/19 04:40:03;;;;;;;5.40;2.95;;;;;21.50;94219.00;;;;7393643;19;20153;-72
2023/08/19 04:42:30;;;;;;;10.25;2.95;;;;;21.40;94211.00;;;;7396985;19;20152;-76
2023/08/19 04:45:05;;;;;;;7.05;3.17;;;;;21.30;94228.00;;;;7396486;19;20594;-76
2023/08/19 04:47:33;;;;;;;5.57;2.88;;;;;21.30;94225.00;;;;7395645;19;20705;-76
2023/08/19 04:50:08;;;;;;;10.18;3.25;;;;;21.40;94223.00;;;;7392960;19;20780;-76
2023/08/19 04:52:42;;;;;;;7.43;3.05;;;;;21.60;94232.00;;;;7397963;19;20139;-76
2023/08/19 04:55:16;;;;;;;9.80;3.40;;;;;21.50;94231.00;;;;7395258;19;20141;-76
2023/08/19 04:57:44;;;;;;;8.57;2.80;;;;;21.60;94228.00;;;;7396971;19;20512;-76
2023/08/19 05:00:19;;;;;;;7.07;2.92;;;;;21.70;94229.00;;;;7393665;19;20125;-75
2023/08/19 05:02:50;;;;;;;8.20;3.17;;;;;21.80;94225.00;;;;7395067;19;20584;-75
2023/08/19 05:05:31;;;;;;;9.38;3.00;;;;;21.80;94220.00;;;;7393730;19;20494;-76
2023/08/19 05:08:05;;;;;;;7.80;3.13;;;;;21.90;94229.00;;;;7395858;19;20139;-76
2023/08/19 05:10:35;;;;;;;13.15;2.95;;;;;21.90;94230.00;;;;7395537;19;20553;-76
2023/08/19 05:13:10;;;;;;;9.07;2.63;;;;;22.10;94225.00;;;;7396390;19;20157;-76
2023/08/19 05:15:38;;;;;;;8.35;3.10;;;;;22.20;94225.00;;;;7394536;19;20140;-77
2023/08/19 05:18:12;;;;;;;7.40;3.13;;;;;22.20;94227.00;;;;7395917;19;20598;-75
2023/08/19 05:20:47;;;;;;;6.25;2.83;;;;;22.30;94226.00;;;;7396107;19;20147;-75
2023/08/19 05:23:21;;;;;;;6.72;3.20;;;;;22.50;94220.00;;;;7392394;19;20149;-75
2023/08/19 05:25:51;;;;;;;5.65;2.95;;;;;22.60;94220.00;;;;7394691;19;20148;-76
2023/08/19 05:28:25;;;;;;;7.15;2.95;;;;;22.80;94226.00;;;;7393995;19;20617;-76
2023/08/19 05:30:53;;;;;;;5.88;2.70;;;;;22.90;94232.00;;;;7390285;19;20607;-76
2023/08/19 05:33:28;;;;;;;7.70;3.22;;;;;23.00;94232.00;;;;7393279;19;20136;-76
2023/08/19 05:36:02;;;;;;;5.30;2.92;;;;;23.20;94225.00;;;;7393854;19;20141;-76
2023/08/19 05:38:29;;;;;;;9.68;3.47;;;;;23.40;94231.00;;;;7392479;19;20607;-76
2023/08/19 05:41:03;;;;;;;7.65;2.72;;;;;23.40;94239.00;;;;7395093;19;20144;-76
2023/08/19 05:43:37;;;;;;;8.85;3.00;;;;;23.60;94234.00;;;;7393945;19;20162;-76
2023/08/19 05:46:11;;;;;;;10.15;2.90;;;;;23.60;94242.00;;;;7392536;19;20145;-77
2023/08/19 05:48:45;;;;;;;10.60;3.40;;;;;23.60;94249.00;;;;7393810;19;20156;-76
2023/08/19 05:51:20;;;;;;;5.85;3.33;;;;;23.70;94251.00;;;;7392283;19;20141;-77
2023/08/19 05:53:59;;;;;;;6.97;2.67;;;;;23.70;94249.00;;;;7392639;19;20148;-77
2023/08/19 05:56:34;;;;;;;7.30;3.13;;;;;23.80;94250.00;;;;7393540;19;20208;-79
2023/08/19 05:59:08;;;;;;;8.40;3.17;;;;;23.80;94257.00;;;;7393547;19;20116;-77
2023/08/19 06:01:42;;;;;;;4.63;2.90;;;;;23.90;94258.00;;;;7392750;19;20158;-77
2023/08/19 06:04:23;;;;;;;8.48;3.20;;;;;23.90;94251.00;;;;7392118;19;20172;-76
2023/08/19 06:06:52;;;;;;;6.18;2.83;;;;;23.80;94256.00;;;;7395754;19;20128;-76
2023/08/19 06:09:27;;;;;;;7.05;3.28;;;;;24.00;94261.00;;;;7395181;19;20137;-77
2023/08/19 06:12:02;;;;;;;10.32;2.85;;;;;24.00;94257.00;;;;7394324;19;20145;-76
2023/08/19 06:14:37;;;;;;;10.65;3.85;;;;;24.10;94259.00;;;;7396872;19;20591;-76
2023/08/19 06:17:05;;;;;;;7.80;3.30;;;;;24.30;94261.00;;;;7399356;19;20137;-76
2023/08/19 06:19:32;;;;;;;6.00;3.17;;;;;24.40;94262.00;;;;7379489;19;20137;-76
2023/08/19 06:22:06;;;;;;;10.23;3.00;;;;;24.50;94258.00;;;;7377325;19;20180;-76
2023/08/19 06:24:34;;;;;;;8.68;3.10;;;;;24.60;94256.00;;;;7389387;19;20137;-76
2023/08/19 06:27:08;;;;;;;13.63;3.40;;;;;24.90;94261.00;;;;7388315;19;20145;-76
2023/08/19 06:29:36;;;;;;;7.05;2.90;;;;;25.00;94253.00;;;;7388188;19;20149;-76
2023/08/19 06:32:11;;;;;;;8.15;3.13;;;;;25.20;94258.00;;;;7386180;19;20527;-76
2023/08/19 06:34:46;;;;;;;6.15;2.90;;;;;25.30;94256.00;;;;7384728;19;20145;-76
2023/08/19 06:37:23;;;;;;;10.43;3.47;;;;;25.50;94267.00;;;;7388907;19;20132;-76
2023/08/19 06:40:04;;;;;;;6.32;3.10;;;;;25.70;94260.00;;;;7386533;19;20272;-76
2023/08/19 06:42:41;;;;;;;8.05;2.90;;;;;25.80;94268.00;;;;7388122;19;20152;-76
2023/08/19 06:45:10;;;;;;;10.65;3.00;;;;;26.00;94260.00;;;;7386021;19;20606;-75
2023/08/19 06:47:49;;;;;;;8.82;3.72;;;;;26.00;94265.00;;;;7386598;19;20622;-75
2023/08/19 06:50:24;;;;;;;8.27;3.45;;;;;26.10;94283.00;;;;7381774;19;20152;-76
2023/08/19 06:52:59;;;;;;;4.72;2.92;;;;;26.20;94284.00;;;;7386039;19;20958;-76
2023/08/19 06:55:33;;;;;;;7.13;3.22;;;;;26.40;94287.00;;;;7387909;19;20602;-76
2023/08/19 06:58:06;;;;;;;6.60;3.10;;;;;26.50;94288.00;;;;7386687;19;20629;-75
2023/08/19 07:00:43;;;;;;;7.78;2.72;;;;;26.60;94288.00;;;;7385940;19;20140;-76
2023/08/19 07:03:27;;;;;;;5.95;3.30;;;;;26.70;94287.00;;;;7385454;19;20649;-75
2023/08/19 07:05:56;;;;;;;5.22;2.80;;;;;26.90;94288.00;;;;7386312;19;20584;-75
2023/08/19 07:08:33;;;;;;;5.70;2.58;;;;;27.10;94294.00;;;;7388815;19;20453;-76
2023/08/19 07:11:01;;;;;;;6.28;3.08;;;;;27.30;94296.00;;;;7385423;19;20133;-75
2023/08/19 07:13:36;;;;;;;5.78;3.00;;;;;27.50;94298.00;;;;7387923;19;20132;-76
2023/08/19 07:16:05;;;;;;;7.45;2.90;;;;;27.60;94299.00;;;;7387131;19;20618;-75
2023/08/19 07:18:42;;;;;;;6.30;3.05;;;;;27.70;94306.00;;;;7387830;19;20204;-76
2023/08/19 07:21:20;;;;;;;5.20;3.20;;;;;27.80;94313.00;;;;7383487;19;20148;-75
2023/08/19 07:24:00;;;;;;;5.90;3.40;;;;;27.80;94316.00;;;;7384701;19;20144;-75
2023/08/19 07:26:35;;;;;;;6.38;3.05;;;;;27.70;94323.00;;;;7385672;19;20155;-76
2023/08/19 07:29:10;;;;;;;9.32;3.30;;;;;27.80;94326.00;;;;7384200;19;20133;-76
2023/08/19 07:31:46;;;;;;;9.68;3.50;;;;;27.80;94317.00;;;;7385633;19;20136;-76
2023/08/19 07:34:20;;;;;;;4.68;3.05;;;;;27.90;94324.00;;;;7384752;19;20484;-75
2023/08/19 07:36:50;;;;;;;6.57;3.08;;;;;28.00;94331.00;;;;7386414;19;20140;-75
2023/08/19 07:39:25;;;;;;;5.95;3.22;;;;;28.30;94326.00;;;;7385321;19;20459;-75
2023/08/19 07:42:01;;;;;;;10.20;3.42;;;;;28.20;94328.00;;;;7383272;19;20162;-75
2023/08/19 07:44:36;;;;;;;7.68;3.70;;;;;28.40;94325.00;;;;7386755;19;20168;-76
2023/08/19 07:47:10;;;;;;;7.78;3.47;;;;;28.30;94331.00;;;;7385869;19;20632;-75
2023/08/19 07:49:42;;;;;;;6.70;3.38;;;;;28.40;94330.00;;;;7382819;19;20153;-75
2023/08/19 07:52:10;;;;;;;5.38;3.30;;;;;28.50;94335.00;;;;7384796;19;20615;-75
2023/08/19 07:54:45;;;;;;;4.63;3.42;;;;;28.40;94336.00;;;;7387802;19;20140;-75
2023/08/19 07:57:19;;;;;;;5.88;3.05;;;;;28.40;94334.00;;;;7384124;19;20145;-76
2023/08/19 07:59:48;;;;;;;9.30;3.08;;;;;28.50;94342.00;;;;7379518;19;20190;-75
2023/08/19 08:02:16;;;;;;;6.88;3.47;;;;;28.60;94345.00;;;;7377723;19;20591;-75
2023/08/19 08:04:54;;;;;;;7.70;3.88;;;;;28.70;94346.00;;;;7378501;19;20607;-75
2023/08/19 08:07:29;;;;;;;14.07;3.83;;;;;28.70;94347.00;;;;7377999;19;20160;-75
2023/08/19 08:10:06;;;;;;;6.68;3.35;;;;;28.90;94346.00;;;;7377892;19;20155;-75
2023/08/19 08:12:41;;;;;;;8.00;3.20;;;;;29.10;94347.00;;;;7380149;19;20139;-74
2023/08/19 08:15:12;;;;;;;11.07;3.80;;;;;29.10;94343.00;;;;7381231;19;20742;-74
2023/08/19 08:17:46;;;;;;;7.65;3.38;;;;;29.30;94346.00;;;;7379881;19;20465;-74
2023/08/19 08:20:14;;;;;;;9.32;3.50;;;;;29.40;94339.00;;;;7379481;19;20141;-75
2023/08/19 08:22:49;;;;;;;5.28;3.63;;;;;29.40;94342.00;;;;7378459;19;20235;-74
2023/08/19 08:25:16;;;;;;;7.85;3.92;;;;;29.40;94345.00;;;;7378212;19;20153;-75
2023/08/19 08:27:45;;;;;;;5.60;3.78;;;;;29.50;94346.00;;;;7379359;19;20570;-75
2023/08/19 08:30:20;;;;;;;6.75;3.72;;;;;29.80;94344.00;;;;7377901;19;20220;-75
2023/08/19 08:32:54;;;;;;;7.63;3.63;;;;;29.50;94344.00;;;;7381016;19;20139;-74
2023/08/19 08:35:22;;;;;;;7.28;4.45;;;;;29.50;94338.00;;;;7381241;19;20161;-75
2023/08/19 08:37:52;;;;;;;9.23;3.72;;;;;29.70;94341.00;;;;7381946;19;20133;-75
2023/08/19 08:40:29;;;;;;;7.60;3.90;;;;;29.80;94354.00;;;;7378742;19;20638;-75
2023/08/19 08:43:04;;;;;;;5.28;3.88;;;;;30.00;94345.00;;;;7380987;19;20515;-75
2023/08/19 08:45:38;;;;;;;9.02;4.00;;;;;30.10;94346.00;;;;7380250;19;20219;-75
2023/08/19 08:48:13;;;;;;;6.53;3.90;;;;;30.00;94348.00;;;;7379741;19;20144;-75
2023/08/19 08:50:43;;;;;;;9.05;3.95;;;;;30.10;94351.00;;;;7379618;19;20169;-75
2023/08/19 08:53:19;;;;;;;8.18;4.03;;;;;30.30;94347.00;;;;7379732;19;20212;-75
2023/08/19 08:55:48;;;;;;;8.75;4.07;;;;;30.30;94344.00;;;;7380505;19;20235;-75
2023/08/19 08:58:22;;;;;;;8.52;3.60;;;;;30.50;94346.00;;;;7379474;19;20129;-75
2023/08/19 09:00:50;;;;;;;6.80;4.00;;;;;30.60;94343.00;;;;7379815;19;20189;-75
2023/08/19 09:03:39;;;;;;;5.63;3.75;;;;;30.60;94344.00;;;;7379249;19;20184;-75
2023/08/19 09:06:17;;;;;;;9.50;4.30;;;;;30.70;94346.00;;;;7380598;19;20208;-75
2023/08/19 09:09:03;;;;;;;9.60;4.03;;;;;31.00;94348.00;;;;7383844;19;20623;-75
2023/08/19 09:11:45;;;;;;;7.90;3.50;;;;;31.20;94354.00;;;;7380611;19;20149;-75
2023/08/19 09:14:29;;;;;;;6.28;3.58;;;;;31.30;94352.00;;;;7380162;19;20629;-75
2023/08/19 09:17:06;;;;;;;4.28;3.33;;;;;31.40;94349.00;;;;7381134;19;20151;-75
2023/08/19 09:19:40;;;;;;;9.38;3.30;;;;;31.60;94352.00;;;;7379914;19;20219;-75
2023/08/19 09:22:17;;;;;;;10.57;3.80;;;;;31.30;94352.00;;;;7379476;19;20643;-76
2023/08/19 09:24:53;;;;;;;5.22;3.47;;;;;31.20;94348.00;;;;7377871;19;20152;-76
2023/08/19 09:27:31;;;;;;;10.88;3.55;;;;;31.50;94351.00;;;;7378254;19;20155;-76
2023/08/19 09:29:59;;;;;;;7.70;3.85;;;;;31.70;94350.00;;;;7378206;19;20159;-76
2023/08/19 09:32:36;;;;;;;5.85;3.47;;;;;31.90;94345.00;;;;7378391;19;20164;-76
2023/08/19 09:35:07;;;;;;;4.18;3.75;;;;;32.40;94345.00;;;;7376681;19;20597;-76
2023/08/19 09:37:42;;;;;;;10.38;4.00;;;;;32.60;94341.00;;;;7377201;19;20152;-75
2023/08/19 09:40:12;;;;;;;8.68;3.42;;;;;33.10;94350.00;;;;7378380;19;20148;-76
2023/08/19 09:42:48;;;;;;;5.95;3.30;;;;;33.40;94344.00;;;;7379335;19;20136;-76
2023/08/19 09:45:18;;;;;;;7.28;3.75;;;;;33.60;94338.00;;;;7377454;19;20166;-76
2023/08/19 09:47:53;;;;;;;13.65;3.92;;;;;33.90;94339.00;;;;7377568;19;20136;-76
2023/08/19 09:50:27;;;;;;;5.90;3.17;;;;;34.30;94342.00;;;;7372080;19;20152;-76
2023/08/19 09:53:04;;;;;;;6.25;3.75;;;;;34.40;94350.00;;;;7378937;19;20128;-76
2023/08/19 09:55:33;;;;;;;5.95;3.35;;;;;33.40;94354.00;;;;7377898;19;20151;-76
2023/08/19 09:58:08;;;;;;;7.38;3.70;;;;;32.70;94367.00;;;;7378296;19;20128;-76
2023/08/19 10:00:49;;;;;;;5.93;3.40;;;;;32.00;94363.00;;;;7375741;19;20144;-76
2023/08/19 10:03:30;;;;;;;7.47;3.40;;;;;31.70;94367.00;;;;7377096;19;20177;-76
2023/08/19 10:06:14;;;;;;;8.30;3.78;;;;;31.30;94375.00;;;;7376871;19;20534;-76
2023/08/19 10:08:45;;;;;;;10.27;3.58;;;;;31.10;94364.00;;;;7377248;19;20602;-77
2023/08/19 10:11:21;;;;;;;6.40;3.35;;;;;31.20;94383.00;;;;7376891;19;20502;-76
2023/08/19 10:13:51;;;;;;;9.43;5.13;;;;;31.50;94378.00;;;;7378738;19;20137;-77
2023/08/19 10:16:27;;;;;;;5.03;3.60;;;;;32.10;94373.00;;;;7381872;19;20488;-76
2023/08/19 10:19:04;;;;;;;6.45;3.60;;;;;32.90;94372.00;;;;7385145;19;20143;-76
2023/08/19 10:21:41;;;;;;;5.40;3.20;;;;;33.30;94369.00;;;;7382476;19;20444;-76
2023/08/19 10:24:09;;;;;;;5.97;4.35;;;;;33.50;94370.00;;;;7382188;19;23811;-76
2023/08/19 10:26:48;;;;;;;5.47;3.20;;;;;33.90;94367.00;;;;7383401;19;20136;-77
2023/08/19 10:29:18;;;;;;;8.40;3.85;;;;;34.10;94360.00;;;;7383028;19;20132;-77
2023/08/19 10:31:52;;;;;;;5.00;3.40;;;;;34.40;94360.00;;;;7381301;19;20495;-76
2023/08/19 10:34:25;;;;;;;7.18;3.70;;;;;34.70;94359.00;;;;7382177;19;20603;-76
2023/08/19 10:37:11;;;;;;;9.35;3.50;;;;;34.80;94368.00;;;;7382098;19;20152;-76
2023/08/19 10:39:39;;;;;;;4.47;3.65;;;;;34.80;94371.00;;;;7382833;19;20543;-76
2023/08/19 10:42:14;;;;;;;9.73;3.60;;;;;34.40;94371.00;;;;7380861;19;20162;-77
2023/08/19 10:44:58;;;;;;;7.68;3.50;;;;;34.40;94380.00;;;;7381228;19;20151;-76
2023/08/19 10:47:41;;;;;;;7.18;4.80;;;;;34.40;94382.00;;;;7381633;19;20150;-76
2023/08/19 10:50:18;;;;;;;5.53;3.35;;;;;34.30;94385.00;;;;7379714;19;20172;-76
2023/08/19 10:53:06;;;;;;;8.13;3.53;;;;;33.80;94383.00;;;;7380599;19;20151;-77
2023/08/19 10:55:52;;;;;;;6.90;3.83;;;;;33.50;94389.00;;;;7380793;19;20148;-76
2023/08/19 10:58:27;;;;;;;5.03;3.78;;;;;33.80;94388.00;;;;7381943;19;20137;-76
2023/08/19 11:01:02;;;;;;;9.50;3.70;;;;;33.60;94389.00;;;;7382269;19;20144;-76
2023/08/19 11:03:50;;;;;;;6.85;3.75;;;;;33.50;94390.00;;;;7387757;19;21045;-77
2023/08/19 11:06:31;;;;;;;6.00;3.72;;;;;34.00;94390.00;;;;7387546;19;20602;-76
2023/08/19 11:09:07;;;;;;;8.30;3.58;;;;;34.10;94386.00;;;;7386074;19;20143;-76
2023/08/19 11:11:41;;;;;;;5.55;3.47;;;;;34.40;94362.00;;;;7387669;19;20183;-76
2023/08/19 11:14:17;;;;;;;9.50;4.00;;;;;34.40;94392.00;;;;7388208;19;20164;-76
2023/08/19 11:16:53;;;;;;;6.07;3.95;;;;;34.30;94390.00;;;;7387147;19;20176;-77
2023/08/19 11:19:22;;;;;;;5.25;3.83;;;;;34.30;94390.00;;;;7387216;19;20917;-76
2023/08/19 11:21:57;;;;;;;8.13;4.03;;;;;34.30;94383.00;;;;7386585;19;20147;-76
2023/08/19 11:24:32;;;;;;;6.28;3.47;;;;;34.40;94386.00;;;;7388784;19;20140;-77
2023/08/19 11:27:07;;;;;;;6.85;3.80;;;;;34.30;94375.00;;;;7388713;19;20621;-77
2023/08/19 11:29:44;;;;;;;5.68;3.65;;;;;34.60;94391.00;;;;7389005;19;20617;-77
2023/08/19 11:32:20;;;;;;;7.47;3.55;;;;;35.00;94384.00;;;;7387237;19;20163;-77
2023/08/19 11:34:48;;;;;;;8.18;3.50;;;;;34.90;94383.00;;;;7387216;19;20215;-76
2023/08/19 11:37:22;;;;;;;7.00;4.10;;;;;34.80;94380.00;;;;7386872;19;20173;-76
2023/08/19 11:39:49;;;;;;;7.53;4.03;;;;;35.30;94384.00;;;;7388048;19;20528;-77
2023/08/19 11:42:27;;;;;;;6.97;3.50;;;;;36.10;94390.00;;;;7386970;19;20159;-77
2023/08/19 11:44:56;;;;;;;10.48;4.35;;;;;36.30;94399.00;;;;7386252;19;20501;-77
2023/08/19 11:47:33;;;;;;;5.15;3.80;;;;;35.60;94408.00;;;;7386050;19;20155;-77
2023/08/19 11:50:11;;;;;;;9.02;4.15;;;;;35.10;94405.00;;;;7381893;19;20136;-77
2023/08/19 11:52:52;;;;;;;6.35;3.92;;;;;34.40;94407.00;;;;7387599;19;20211;-77
2023/08/19 11:55:26;;;;;;;4.57;3.70;;;;;34.30;94415.00;;;;7387050;19;20561;-76
2023/08/19 11:58:05;;;;;;;10.90;4.47;;;;;34.10;94426.00;;;;7386462;19;20195;-76
2023/08/19 12:00:33;;;;;;;6.30;3.80;;;;;33.70;94426.00;;;;7386871;19;20158;-77
2023/08/19 12:03:08;;;;;;;6.50;3.92;;;;;33.60;94417.00;;;;7386803;19;20148;-77
2023/08/19 12:05:51;;;;;;;6.68;3.90;;;;;33.90;94419.00;;;;7386199;19;20195;-77
2023/08/19 12:08:34;;;;;;;7.70;4.05;;;;;33.70;94428.00;;;;7387860;19;20136;-77
2023/08/19 12:11:22;;;;;;;7.07;3.95;;;;;33.50;94432.00;;;;7386804;19;20158;-78
2023/08/19 12:13:50;;;;;;;6.25;4.32;;;;;33.50;94425.00;;;;7386658;19;20608;-78
2023/08/19 12:16:25;;;;;;;5.65;4.00;;;;;32.60;94434.00;;;;7386440;19;20215;-77
2023/08/19 12:19:01;;;;;;;9.38;4.22;;;;;32.80;94438.00;;;;7386110;19;20132;-77
2023/08/19 12:21:36;;;;;;;8.23;4.05;;;;;33.00;94439.00;;;;7386944;19;20132;-77
2023/08/19 12:24:04;;;;;;;15.40;4.68;;;;;33.60;94440.00;;;;7385807;19;20217;-77
2023/08/19 12:26:39;;;;;;;8.38;3.95;;;;;33.80;94442.00;;;;7386953;19;20136;-77
2023/08/19 12:29:06;;;;;;;8.10;4.22;;;;;34.10;94443.00;;;;7386536;19;20154;-77
2023/08/19 12:31:41;;;;;;;8.30;3.80;;;;;33.80;94454.00;;;;7385761;19;20151;-76
2023/08/19 12:34:08;;;;;;;8.15;4.38;;;;;33.10;94453.00;;;;7386818;19;20587;-77
2023/08/19 12:36:43;;;;;;;5.43;3.88;;;;;33.10;94455.00;;;;7386767;19;21028;-77
2023/08/19 12:39:10;;;;;;;9.25;4.50;;;;;32.90;94456.00;;;;7387035;19;20603;-76
2023/08/19 12:41:39;;;;;;;6.38;3.95;;;;;32.60;94467.00;;;;7386995;19;20152;-76
2023/08/19 12:44:15;;;;;;;6.93;4.50;;;;;32.70;94459.00;;;;7386503;19;20494;-76
2023/08/19 12:46:46;;;;;;;11.60;4.80;;;;;32.10;94478.00;;;;7385901;19;20129;-78
2023/08/19 12:49:21;;;;;;;8.23;4.53;;;;;32.40;94478.00;;;;7382100;19;20609;-76
2023/08/19 12:51:49;;;;;;;7.65;4.40;;;;;31.80;94489.00;;;;7384456;19;20169;-73